sensor_id;sensor_type;location;lat;lon;timestamp;pressure;altitude;pressure_sealevel;temperature;humidity
2675;BME280;1347;42.122;24.746;2023-04-19T00:00:40;99139.00;;;11.03;100.00
2675;BME280;1347;42.122;24.746;2023-04-19T00:03:08;99141.72;;;11.00;100.00
2675;BME280;1347;42.122;24.746;2023-04-19T00:05:37;99137.81;;;11.01;100.00
2675;BME280;1347;42.122;24.746;2023-04-19T00:08:04;99136.66;;;11.02;100.00
2675;BME280;1347;42.122;24.746;2023-04-19T00:10:31;99136.56;;;10.88;100.00
2675;BME280;1347;42.122;24.746;2023-04-19T00:13:00;99131.16;;;10.98;100.00
2675;BME280;1347;42.122;24.746;2023-04-19T00:15:27;99124.72;;;10.80;100.00
2675;BME280;1347;42.122;24.746;2023-04-19T00:17:54;99119.75;;;10.93;100.00
2675;BME280;1347;42.122;24.746;2023-04-19T00:20:21;99115.78;;;10.87;100.00
2675;BME280;1347;42.122;24.746;2023-04-19T00:22:49;99111.03;;;10.80;100.00
2675;BME280;1347;42.122;24.746;2023-04-19T00:25:16;99106.34;;;10.81;100.00
2675;BME280;1347;42.122;24.746;2023-04-19T00:27:45;99106.81;;;10.93;100.00
2675;BME280;1347;42.122;24.746;2023-04-19T00:30:13;99096.19;;;10.85;100.00
2675;BME280;1347;42.122;24.746;2023-04-19T00:32:40;99102.81;;;10.80;100.00
2675;BME280;1347;42.122;24.746;2023-04-19T00:35:07;99096.19;;;10.85;100.00
2675;BME280;1347;42.122;24.746;2023-04-19T00:37:34;99100.06;;;10.77;100.00
2675;BME280;1347;42.122;24.746;2023-04-19T00:40:03;99100.09;;;10.84;100.00
2675;BME280;1347;42.122;24.746;2023-04-19T00:42:30;99093.81;;;10.83;100.00
2675;BME280;1347;42.122;24.746;2023-04-19T00:44:57;99102.09;;;10.87;100.00
2675;BME280;1347;42.122;24.746;2023-04-19T00:47:24;99101.28;;;10.86;100.00
2675;BME280;1347;42.122;24.746;2023-04-19T00:49:51;99102.50;;;10.89;100.00
2675;BME280;1347;42.122;24.746;2023-04-19T00:52:18;99102.09;;;10.90;100.00
2675;BME280;1347;42.122;24.746;2023-04-19T00:54:45;99091.44;;;10.78;100.00
2675;BME280;1347;42.122;24.746;2023-04-19T00:57:14;99096.19;;;10.85;100.00
2675;BME280;1347;42.122;24.746;2023-04-19T00:59:41;99088.75;;;10.85;100.00
2675;BME280;1347;42.122;24.746;2023-04-19T01:02:08;99087.94;;;10.81;100.00
2675;BME280;1347;42.122;24.746;2023-04-19T01:04:35;99084.03;;;10.79;100.00
2675;BME280;1347;42.122;24.746;2023-04-19T01:07:02;99089.09;;;10.77;100.00
2675;BME280;1347;42.122;24.746;2023-04-19T01:09:30;99086.38;;;10.84;100.00
2675;BME280;1347;42.122;24.746;2023-04-19T01:11:56;99086.03;;;10.89;100.00
2675;BME280;1347;42.122;24.746;2023-04-19T01:14:25;99084.84;;;10.86;100.00
2675;BME280;1347;42.122;24.746;2023-04-19T01:16:52;99083.31;;;10.89;100.00
2675;BME280;1347;42.122;24.746;2023-04-19T01:19:19;99079.00;;;10.91;100.00
2675;BME280;1347;42.122;24.746;2023-04-19T01:21:46;99080.53;;;10.85;100.00
2675;BME280;1347;42.122;24.746;2023-04-19T01:24:14;99077.44;;;10.94;100.00
2675;BME280;1347;42.122;24.746;2023-04-19T01:26:41;99083.72;;;10.94;100.00
2675;BME280;1347;42.122;24.746;2023-04-19T01:29:08;99075.88;;;10.93;100.00
2675;BME280;1347;42.122;24.746;2023-04-19T01:31:35;99069.56;;;10.85;100.00
2675;BME280;1347;42.122;24.746;2023-04-19T01:34:02;99060.56;;;10.88;100.00
2675;BME280;1347;42.122;24.746;2023-04-19T01:36:29;99066.84;;;10.89;100.00
2675;BME280;1347;42.122;24.746;2023-04-19T01:38:56;99058.94;;;10.77;100.00
2675;BME280;1347;42.122;24.746;2023-04-19T01:41:24;99058.56;;;10.82;100.00
2675;BME280;1347;42.122;24.746;2023-04-19T01:43:52;99060.19;;;10.93;100.00
2675;BME280;1347;42.122;24.746;2023-04-19T01:46:18;99056.69;;;10.96;100.00
2675;BME280;1347;42.122;24.746;2023-04-19T01:48:45;99057.09;;;10.95;100.00
2675;BME280;1347;42.122;24.746;2023-04-19T01:51:12;99055.16;;;11.02;100.00
2675;BME280;1347;42.122;24.746;2023-04-19T01:53:41;99056.75;;;11.07;100.00
2675;BME280;1347;42.122;24.746;2023-04-19T01:56:08;99053.63;;;11.05;100.00
2675;BME280;1347;42.122;24.746;2023-04-19T01:58:36;99048.88;;;11.02;100.00
2675;BME280;1347;42.122;24.746;2023-04-19T02:01:03;99044.56;;;11.01;100.00
2675;BME280;1347;42.122;24.746;2023-04-19T02:03:30;99042.19;;;10.96;100.00
2675;BME280;1347;42.122;24.746;2023-04-19T02:05:57;99038.25;;;10.93;100.00
2675;BME280;1347;42.122;24.746;2023-04-19T02:08:24;99046.81;;;10.81;100.00
2675;BME280;1347;42.122;24.746;2023-04-19T02:10:52;99039.75;;;10.80;100.00
2675;BME280;1347;42.122;24.746;2023-04-19T02:13:18;99039.03;;;10.90;100.00
2675;BME280;1347;42.122;24.746;2023-04-19T02:15:47;99038.25;;;10.93;100.00
2675;BME280;1347;42.122;24.746;2023-04-19T02:18:14;99037.06;;;10.87;100.00
2675;BME280;1347;42.122;24.746;2023-04-19T02:20:42;99033.53;;;10.90;100.00
2675;BME280;1347;42.122;24.746;2023-04-19T02:23:09;99028.78;;;10.80;100.00
2675;BME280;1347;42.122;24.746;2023-04-19T02:25:35;99033.50;;;10.83;100.00
2675;BME280;1347;42.122;24.746;2023-04-19T02:28:02;99030.34;;;10.81;100.00
2675;BME280;1347;42.122;24.746;2023-04-19T02:30:29;99029.19;;;10.82;100.00
2675;BME280;1347;42.122;24.746;2023-04-19T02:32:57;99034.69;;;10.86;100.00
2675;BME280;1347;42.122;24.746;2023-04-19T02:35:24;99021.38;;;10.84;100.00
2675;BME280;1347;42.122;24.746;2023-04-19T02:37:51;99023.28;;;10.80;100.00
2675;BME280;1347;42.122;24.746;2023-04-19T02:40:18;99022.53;;;10.83;100.00
2675;BME280;1347;42.122;24.746;2023-04-19T02:42:47;99020.91;;;10.72;100.00
2675;BME280;1347;42.122;24.746;2023-04-19T02:45:14;99018.22;;;10.82;100.00
2675;BME280;1347;42.122;24.746;2023-04-19T02:47:41;99021.38;;;10.84;100.00
2675;BME280;1347;42.122;24.746;2023-04-19T02:50:09;99021.78;;;10.90;100.00
2675;BME280;1347;42.122;24.746;2023-04-19T02:52:36;99022.19;;;10.88;100.00
2675;BME280;1347;42.122;24.746;2023-04-19T02:55:05;99015.47;;;10.82;100.00
2675;BME280;1347;42.122;24.746;2023-04-19T02:57:32;99018.59;;;10.81;100.00
2675;BME280;1347;42.122;24.746;2023-04-19T02:59:59;99017.47;;;10.85;100.00
2675;BME280;1347;42.122;24.746;2023-04-19T03:02:26;99023.72;;;10.86;100.00
2675;BME280;1347;42.122;24.746;2023-04-19T03:04:52;99024.16;;;10.88;100.00
2675;BME280;1347;42.122;24.746;2023-04-19T03:07:22;99024.53;;;10.90;100.00
2675;BME280;1347;42.122;24.746;2023-04-19T03:09:49;99029.59;;;10.84;100.00
2675;BME280;1347;42.122;24.746;2023-04-19T03:12:16;99027.19;;;10.79;100.00
2675;BME280;1347;42.122;24.746;2023-04-19T03:14:43;99033.47;;;10.80;100.00
2675;BME280;1347;42.122;24.746;2023-04-19T03:17:10;99023.66;;;10.75;100.00
2675;BME280;1347;42.122;24.746;2023-04-19T03:19:36;99022.84;;;10.67;100.00
2675;BME280;1347;42.122;24.746;2023-04-19T03:22:03;99026.06;;;10.84;100.00
2675;BME280;1347;42.122;24.746;2023-04-19T03:24:32;99026.81;;;10.81;100.00
2675;BME280;1347;42.122;24.746;2023-04-19T03:26:59;99022.53;;;10.83;100.00
2675;BME280;1347;42.122;24.746;2023-04-19T03:29:26;99035.06;;;10.84;100.00
2675;BME280;1347;42.122;24.746;2023-04-19T03:31:52;99023.66;;;10.75;100.00
2675;BME280;1347;42.122;24.746;2023-04-19T03:34:19;99024.88;;;10.78;100.00
2675;BME280;1347;42.122;24.746;2023-04-19T03:36:46;99033.09;;;10.78;100.00
2675;BME280;1347;42.122;24.746;2023-04-19T03:39:13;99026.81;;;10.81;100.00
2675;BME280;1347;42.122;24.746;2023-04-19T03:41:41;99028.00;;;10.80;100.00
2675;BME280;1347;42.122;24.746;2023-04-19T03:44:08;99030.78;;;10.87;100.00
2675;BME280;1347;42.122;24.746;2023-04-19T03:46:35;99026.88;;;10.88;100.00
2675;BME280;1347;42.122;24.746;2023-04-19T03:49:02;99028.78;;;10.80;100.00
2675;BME280;1347;42.122;24.746;2023-04-19T03:51:29;99029.63;;;10.91;100.00
2675;BME280;1347;42.122;24.746;2023-04-19T03:53:56;99022.19;;;10.88;100.00
2675;BME280;1347;42.122;24.746;2023-04-19T03:56:23;99030.41;;;10.92;100.00
2675;BME280;1347;42.122;24.746;2023-04-19T03:58:51;99030.47;;;10.99;100.00
2675;BME280;1347;42.122;24.746;2023-04-19T04:01:18;99032.03;;;10.96;100.00
2675;BME280;1347;42.122;24.746;2023-04-19T04:03:45;99029.28;;;11.00;100.00
2675;BME280;1347;42.122;24.746;2023-04-19T04:06:13;99030.47;;;10.99;100.00
2675;BME280;1347;42.122;24.746;2023-04-19T04:08:40;99035.50;;;10.90;100.00
2675;BME280;1347;42.122;24.746;2023-04-19T04:11:06;99028.50;;;10.99;100.00
2675;BME280;1347;42.122;24.746;2023-04-19T04:13:33;99028.53;;;11.10;100.00
2675;BME280;1347;42.122;24.746;2023-04-19T04:16:02;99034.44;;;11.12;100.00
2675;BME280;1347;42.122;24.746;2023-04-19T04:18:29;99030.50;;;11.06;100.00
2675;BME280;1347;42.122;24.746;2023-04-19T04:20:56;99032.47;;;11.05;100.00
2675;BME280;1347;42.122;24.746;2023-04-19T04:23:24;99025.81;;;11.06;100.00
2675;BME280;1347;42.122;24.746;2023-04-19T04:25:56;99030.53;;;11.13;100.00
2675;BME280;1347;42.122;24.746;2023-04-19T04:28:25;99035.25;;;11.20;100.00
2675;BME280;1347;42.122;24.746;2023-04-19T04:30:52;99037.66;;;11.32;100.00
2675;BME280;1347;42.122;24.746;2023-04-19T04:33:23;99030.66;;;11.38;100.00
2675;BME280;1347;42.122;24.746;2023-04-19T04:35:51;99031.03;;;11.43;100.00
2675;BME280;1347;42.122;24.746;2023-04-19T04:38:18;99027.50;;;11.43;100.00
2675;BME280;1347;42.122;24.746;2023-04-19T04:40:48;99034.97;;;11.39;100.00
2675;BME280;1347;42.122;24.746;2023-04-19T04:43:18;99039.72;;;11.49;100.00
2675;BME280;1347;42.122;24.746;2023-04-19T04:45:45;99037.38;;;11.58;100.00
2675;BME280;1347;42.122;24.746;2023-04-19T04:48:12;99038.59;;;11.68;100.00
2675;BME280;1347;42.122;24.746;2023-04-19T04:50:40;99047.66;;;11.83;100.00
2675;BME280;1347;42.122;24.746;2023-04-19T04:53:08;99040.63;;;11.89;100.00
2675;BME280;1347;42.122;24.746;2023-04-19T04:55:36;99040.59;;;11.85;100.00
2675;BME280;1347;42.122;24.746;2023-04-19T04:58:03;99037.47;;;11.87;100.00
2675;BME280;1347;42.122;24.746;2023-04-19T05:00:30;99035.09;;;11.82;100.00
2675;BME280;1347;42.122;24.746;2023-04-19T05:02:58;99048.44;;;11.83;100.00
2675;BME280;1347;42.122;24.746;2023-04-19T05:05:26;99044.56;;;11.98;100.00
2675;BME280;1347;42.122;24.746;2023-04-19T05:07:54;99043.34;;;11.92;100.00
2675;BME280;1347;42.122;24.746;2023-04-19T05:10:21;99035.53;;;11.94;100.00
2675;BME280;1347;42.122;24.746;2023-04-19T05:12:48;99042.22;;;12.00;100.00
2675;BME280;1347;42.122;24.746;2023-04-19T05:15:15;99048.88;;;12.03;100.00
2675;BME280;1347;42.122;24.746;2023-04-19T05:17:42;99050.06;;;12.12;100.00
2675;BME280;1347;42.122;24.746;2023-04-19T05:20:09;99044.19;;;12.18;100.00
2675;BME280;1347;42.122;24.746;2023-04-19T05:22:36;99053.59;;;12.24;100.00
2675;BME280;1347;42.122;24.746;2023-04-19T05:25:06;99057.53;;;12.33;100.00
2675;BME280;1347;42.122;24.746;2023-04-19T05:27:34;99046.16;;;12.38;100.00
2675;BME280;1347;42.122;24.746;2023-04-19T05:30:02;99055.19;;;12.35;100.00
2675;BME280;1347;42.122;24.746;2023-04-19T05:32:29;99056.34;;;12.52;100.00
2675;BME280;1347;42.122;24.746;2023-04-19T05:34:56;99052.03;;;12.54;100.00
2675;BME280;1347;42.122;24.746;2023-04-19T05:37:23;99048.09;;;12.52;100.00
2675;BME280;1347;42.122;24.746;2023-04-19T05:39:50;99052.41;;;12.53;100.00
2675;BME280;1347;42.122;24.746;2023-04-19T05:42:18;99047.31;;;12.62;100.00
2675;BME280;1347;42.122;24.746;2023-04-19T05:44:45;99055.94;;;12.64;100.00
2675;BME280;1347;42.122;24.746;2023-04-19T05:47:12;99050.47;;;12.68;100.00
2675;BME280;1347;42.122;24.746;2023-04-19T05:49:39;99057.13;;;12.63;100.00
2675;BME280;1347;42.122;24.746;2023-04-19T05:52:06;99059.09;;;12.56;100.00
2675;BME280;1347;42.122;24.746;2023-04-19T05:54:33;99053.59;;;12.56;100.00
2675;BME280;1347;42.122;24.746;2023-04-19T05:57:00;99052.41;;;12.64;100.00
2675;BME280;1347;42.122;24.746;2023-04-19T05:59:29;99051.63;;;12.67;100.00
2675;BME280;1347;42.122;24.746;2023-04-19T06:01:56;99048.09;;;12.77;100.00
2675;BME280;1347;42.122;24.746;2023-04-19T06:04:23;99049.66;;;12.78;100.00
2675;BME280;1347;42.122;24.746;2023-04-19T06:06:50;99044.13;;;12.99;100.00
2675;BME280;1347;42.122;24.746;2023-04-19T06:09:16;99048.44;;;13.00;100.00
2675;BME280;1347;42.122;24.746;2023-04-19T06:11:43;99051.16;;;13.18;100.00
2675;BME280;1347;42.122;24.746;2023-04-19T06:14:10;99048.72;;;13.38;100.00
2675;BME280;1347;42.122;24.746;2023-04-19T06:16:39;99047.13;;;13.47;100.00
2675;BME280;1347;42.122;24.746;2023-04-19T06:19:06;99048.78;;;13.27;99.81
2675;BME280;1347;42.122;24.746;2023-04-19T06:21:33;99056.56;;;13.46;99.61
2675;BME280;1347;42.122;24.746;2023-04-19T06:24:00;99055.47;;;13.33;100.00
2675;BME280;1347;42.122;24.746;2023-04-19T06:26:28;99054.97;;;13.49;100.00
2675;BME280;1347;42.122;24.746;2023-04-19T06:28:54;99050.22;;;13.56;99.15
2675;BME280;1347;42.122;24.746;2023-04-19T06:31:21;99055.34;;;13.54;99.40
2675;BME280;1347;42.122;24.746;2023-04-19T06:33:50;99057.63;;;13.70;97.25
2675;BME280;1347;42.122;24.746;2023-04-19T06:36:17;99058.75;;;13.83;97.97
2675;BME280;1347;42.122;24.746;2023-04-19T06:38:44;99058.31;;;13.88;97.99
2675;BME280;1347;42.122;24.746;2023-04-19T06:41:11;99071.97;;;14.13;98.39
2675;BME280;1347;42.122;24.746;2023-04-19T06:43:38;99063.94;;;14.29;97.38
2675;BME280;1347;42.122;24.746;2023-04-19T06:46:07;99074.00;;;14.57;94.16
2675;BME280;1347;42.122;24.746;2023-04-19T06:48:34;99073.38;;;14.84;93.55
2675;BME280;1347;42.122;24.746;2023-04-19T06:51:03;99067.28;;;15.03;92.79
2675;BME280;1347;42.122;24.746;2023-04-19T06:53:30;99076.06;;;14.91;92.25
2675;BME280;1347;42.122;24.746;2023-04-19T06:55:58;99079.69;;;15.59;91.88
2675;BME280;1347;42.122;24.746;2023-04-19T06:58:26;99070.63;;;16.16;86.91
2675;BME280;1347;42.122;24.746;2023-04-19T07:00:53;99082.00;;;16.48;84.87
2675;BME280;1347;42.122;24.746;2023-04-19T07:03:20;99078.78;;;16.77;82.47
2675;BME280;1347;42.122;24.746;2023-04-19T07:05:47;99076.09;;;17.56;84.05
2675;BME280;1347;42.122;24.746;2023-04-19T07:08:15;99078.78;;;17.99;81.19
2675;BME280;1347;42.122;24.746;2023-04-19T07:10:42;99087.19;;;17.76;77.73
2675;BME280;1347;42.122;24.746;2023-04-19T07:13:10;99083.88;;;17.61;78.77
2675;BME280;1347;42.122;24.746;2023-04-19T07:15:37;99088.69;;;18.32;78.19
2675;BME280;1347;42.122;24.746;2023-04-19T07:18:04;99080.69;;;20.87;75.70
2675;BME280;1347;42.122;24.746;2023-04-19T07:20:31;99090.31;;;22.97;62.84
2675;BME280;1347;42.122;24.746;2023-04-19T07:22:58;99088.94;;;24.26;59.65
2675;BME280;1347;42.122;24.746;2023-04-19T07:25:26;99087.13;;;24.80;57.81
2675;BME280;1347;42.122;24.746;2023-04-19T07:27:54;99077.16;;;24.22;56.42
2675;BME280;1347;42.122;24.746;2023-04-19T07:30:21;99086.97;;;24.08;56.33
2675;BME280;1347;42.122;24.746;2023-04-19T07:35:16;99079.75;;;21.59;58.76
2675;BME280;1347;42.122;24.746;2023-04-19T07:37:43;99075.94;;;21.10;61.77
2675;BME280;1347;42.122;24.746;2023-04-19T07:40:11;99080.66;;;21.00;61.43
2675;BME280;1347;42.122;24.746;2023-04-19T07:42:41;99078.13;;;21.49;61.17
2675;BME280;1347;42.122;24.746;2023-04-19T07:45:09;99060.59;;;20.20;63.83
2675;BME280;1347;42.122;24.746;2023-04-19T07:47:36;99086.31;;;20.11;64.34
2675;BME280;1347;42.122;24.746;2023-04-19T07:50:03;99081.41;;;20.03;62.63
2675;BME280;1347;42.122;24.746;2023-04-19T07:52:32;99087.13;;;19.41;64.45
2675;BME280;1347;42.122;24.746;2023-04-19T07:54:58;99080.59;;;19.19;65.29
2675;BME280;1347;42.122;24.746;2023-04-19T07:57:26;99096.72;;;18.79;65.67
2675;BME280;1347;42.122;24.746;2023-04-19T07:59:54;99089.81;;;18.35;68.45
2675;BME280;1347;42.122;24.746;2023-04-19T08:02:24;99089.22;;;18.27;67.87
2675;BME280;1347;42.122;24.746;2023-04-19T08:04:52;99088.22;;;18.86;67.79
2675;BME280;1347;42.122;24.746;2023-04-19T08:07:19;99095.03;;;20.51;64.52
2675;BME280;1347;42.122;24.746;2023-04-19T08:09:47;99090.03;;;20.93;61.63
2675;BME280;1347;42.122;24.746;2023-04-19T08:12:14;99089.44;;;21.11;60.15
2675;BME280;1347;42.122;24.746;2023-04-19T08:14:43;99094.81;;;22.86;55.48
2675;BME280;1347;42.122;24.746;2023-04-19T08:17:12;99096.09;;;23.48;55.68
2675;BME280;1347;42.122;24.746;2023-04-19T08:19:40;99091.56;;;25.19;50.25
2675;BME280;1347;42.122;24.746;2023-04-19T08:22:07;99077.72;;;26.43;47.31
2675;BME280;1347;42.122;24.746;2023-04-19T08:24:35;99089.25;;;26.45;46.09
2675;BME280;1347;42.122;24.746;2023-04-19T08:27:02;99094.00;;;27.75;44.29
2675;BME280;1347;42.122;24.746;2023-04-19T08:29:28;99084.38;;;27.41;43.20
2675;BME280;1347;42.122;24.746;2023-04-19T08:31:55;99095.25;;;29.81;41.20
2675;BME280;1347;42.122;24.746;2023-04-19T08:34:24;99095.72;;;29.74;39.87
2675;BME280;1347;42.122;24.746;2023-04-19T08:36:50;99099.34;;;29.04;40.45
2675;BME280;1347;42.122;24.746;2023-04-19T08:39:17;99085.47;;;29.88;39.59
2675;BME280;1347;42.122;24.746;2023-04-19T08:41:45;99102.53;;;33.44;33.64
2675;BME280;1347;42.122;24.746;2023-04-19T08:44:13;99075.44;;;33.94;33.61
2675;BME280;1347;42.122;24.746;2023-04-19T08:46:42;99072.81;;;33.02;35.45
2675;BME280;1347;42.122;24.746;2023-04-19T08:49:10;99076.09;;;33.87;34.73
2675;BME280;1347;42.122;24.746;2023-04-19T08:51:39;99067.69;;;33.19;34.15
2675;BME280;1347;42.122;24.746;2023-04-19T08:54:07;99058.56;;;31.17;35.46
2675;BME280;1347;42.122;24.746;2023-04-19T08:56:35;99060.66;;;31.11;35.75
2675;BME280;1347;42.122;24.746;2023-04-19T08:59:02;99060.53;;;29.75;36.88
2675;BME280;1347;42.122;24.746;2023-04-19T09:01:29;99057.56;;;28.71;39.46
2675;BME280;1347;42.122;24.746;2023-04-19T09:03:56;99053.97;;;27.45;40.35
2675;BME280;1347;42.122;24.746;2023-04-19T09:06:23;99055.19;;;25.63;42.78
2675;BME280;1347;42.122;24.746;2023-04-19T09:08:53;99054.41;;;25.92;42.56
2675;BME280;1347;42.122;24.746;2023-04-19T09:11:39;99054.03;;;25.85;42.31
2675;BME280;1347;42.122;24.746;2023-04-19T09:14:09;99061.63;;;27.65;40.50
2675;BME280;1347;42.122;24.746;2023-04-19T09:16:37;99057.53;;;29.08;39.76
2675;BME280;1347;42.122;24.746;2023-04-19T09:19:05;99059.97;;;28.41;39.06
2675;BME280;1347;42.122;24.746;2023-04-19T09:21:35;99059.91;;;29.32;36.09
2675;BME280;1347;42.122;24.746;2023-04-19T09:24:04;99062.78;;;29.38;37.26
2675;BME280;1347;42.122;24.746;2023-04-19T09:26:31;99053.03;;;27.54;40.02
2675;BME280;1347;42.122;24.746;2023-04-19T09:29:00;99050.31;;;26.93;41.27
2675;BME280;1347;42.122;24.746;2023-04-19T09:31:28;99043.53;;;26.00;42.51
2675;BME280;1347;42.122;24.746;2023-04-19T09:33:55;99050.41;;;24.45;43.53
2675;BME280;1347;42.122;24.746;2023-04-19T09:36:26;99049.53;;;24.39;45.75
2675;BME280;1347;42.122;24.746;2023-04-19T09:38:53;99044.81;;;23.61;46.59
2675;BME280;1347;42.122;24.746;2023-04-19T09:41:22;99041.38;;;23.11;47.50
2675;BME280;1347;42.122;24.746;2023-04-19T09:43:49;99043.72;;;23.12;48.44
2675;BME280;1347;42.122;24.746;2023-04-19T09:46:29;99049.91;;;22.80;50.17
2675;BME280;1347;42.122;24.746;2023-04-19T09:49:14;99039.16;;;25.40;45.18
2675;BME280;1347;42.122;24.746;2023-04-19T09:51:42;99040.13;;;26.11;44.11
2675;BME280;1347;42.122;24.746;2023-04-19T09:54:10;99038.13;;;27.01;42.49
2675;BME280;1347;42.122;24.746;2023-04-19T09:56:38;99039.50;;;28.89;39.26
2675;BME280;1347;42.122;24.746;2023-04-19T09:59:07;99028.00;;;28.55;39.92
2675;BME280;1347;42.122;24.746;2023-04-19T10:01:36;99044.13;;;32.33;35.98
2675;BME280;1347;42.122;24.746;2023-04-19T10:04:04;99044.81;;;35.37;31.94
2675;BME280;1347;42.122;24.746;2023-04-19T10:06:34;99042.91;;;37.14;29.03
2675;BME280;1347;42.122;24.746;2023-04-19T10:09:02;99039.75;;;38.68;27.54
2675;BME280;1347;42.122;24.746;2023-04-19T10:11:31;99025.16;;;39.44;26.11
2675;BME280;1347;42.122;24.746;2023-04-19T10:14:05;99024.13;;;41.69;24.96
2675;BME280;1347;42.122;24.746;2023-04-19T10:16:33;99023.56;;;41.80;24.73
2675;BME280;1347;42.122;24.746;2023-04-19T10:19:02;99018.31;;;41.15;25.92
2675;BME280;1347;42.122;24.746;2023-04-19T10:21:30;99009.59;;;42.69;24.69
2675;BME280;1347;42.122;24.746;2023-04-19T10:23:57;99009.91;;;42.92;24.68
2675;BME280;1347;42.122;24.746;2023-04-19T10:26:25;99005.03;;;42.75;23.70
2675;BME280;1347;42.122;24.746;2023-04-19T10:28:53;98993.97;;;42.62;23.55
2675;BME280;1347;42.122;24.746;2023-04-19T10:31:24;98992.94;;;39.20;25.46
2675;BME280;1347;42.122;24.746;2023-04-19T10:33:52;98988.31;;;37.48;25.51
2675;BME280;1347;42.122;24.746;2023-04-19T10:36:20;98987.63;;;37.70;25.43
2675;BME280;1347;42.122;24.746;2023-04-19T10:38:48;98977.06;;;37.35;26.69
2675;BME280;1347;42.122;24.746;2023-04-19T10:41:17;98972.91;;;34.71;28.50
2675;BME280;1347;42.122;24.746;2023-04-19T10:43:45;98971.59;;;31.06;32.02
2675;BME280;1347;42.122;24.746;2023-04-19T10:46:14;98963.94;;;30.21;33.31
2675;BME280;1347;42.122;24.746;2023-04-19T10:48:52;98965.56;;;34.10;30.89
2675;BME280;1347;42.122;24.746;2023-04-19T10:51:21;98961.94;;;36.19;29.04
2675;BME280;1347;42.122;24.746;2023-04-19T10:53:53;98972.31;;;38.59;26.93
2675;BME280;1347;42.122;24.746;2023-04-19T10:56:55;98964.78;;;35.35;27.86
2675;BME280;1347;42.122;24.746;2023-04-19T10:59:15;98961.66;;;33.81;28.41
2675;BME280;1347;42.122;24.746;2023-04-19T11:01:50;98962.41;;;32.01;31.29
2675;BME280;1347;42.122;24.746;2023-04-19T11:04:22;98951.47;;;31.16;32.39
2675;BME280;1347;42.122;24.746;2023-04-19T11:07:02;98959.25;;;29.07;34.91
2675;BME280;1347;42.122;24.746;2023-04-19T11:09:31;98962.09;;;28.53;34.84
2675;BME280;1347;42.122;24.746;2023-04-19T11:12:00;98959.03;;;27.20;37.10
2675;BME280;1347;42.122;24.746;2023-04-19T11:14:30;98953.63;;;26.15;38.61
2675;BME280;1347;42.122;24.746;2023-04-19T11:16:59;98953.13;;;23.89;41.80
2675;BME280;1347;42.122;24.746;2023-04-19T11:19:27;98950.91;;;22.14;46.21
2675;BME280;1347;42.122;24.746;2023-04-19T11:21:57;98945.56;;;22.74;46.43
2675;BME280;1347;42.122;24.746;2023-04-19T11:24:25;98943.34;;;22.42;47.57
2675;BME280;1347;42.122;24.746;2023-04-19T11:26:54;98950.50;;;23.25;46.28
2675;BME280;1347;42.122;24.746;2023-04-19T11:29:21;98940.41;;;23.78;44.01
2675;BME280;1347;42.122;24.746;2023-04-19T11:31:48;98939.69;;;24.02;42.97
2675;BME280;1347;42.122;24.746;2023-04-19T11:34:15;98943.00;;;23.91;42.13
2675;BME280;1347;42.122;24.746;2023-04-19T11:36:49;98941.03;;;24.39;42.63
2675;BME280;1347;42.122;24.746;2023-04-19T11:39:16;98947.41;;;25.46;40.87
2675;BME280;1347;42.122;24.746;2023-04-19T11:41:43;98945.34;;;24.64;42.54
2675;BME280;1347;42.122;24.746;2023-04-19T11:44:15;98942.31;;;25.30;40.96
2675;BME280;1347;42.122;24.746;2023-04-19T11:46:57;98937.84;;;25.38;41.35
2675;BME280;1347;42.122;24.746;2023-04-19T11:49:28;98943.94;;;25.37;41.54
2675;BME280;1347;42.122;24.746;2023-04-19T11:51:57;98938.44;;;26.07;41.11
2675;BME280;1347;42.122;24.746;2023-04-19T11:54:25;98938.09;;;24.96;40.67
2675;BME280;1347;42.122;24.746;2023-04-19T11:56:59;98937.72;;;24.17;43.51
2675;BME280;1347;42.122;24.746;2023-04-19T11:59:28;98936.34;;;24.12;44.81
2675;BME280;1347;42.122;24.746;2023-04-19T12:01:55;98938.56;;;23.15;45.69
2675;BME280;1347;42.122;24.746;2023-04-19T12:04:22;98942.13;;;22.43;47.82
2675;BME280;1347;42.122;24.746;2023-04-19T12:06:58;98943.66;;;22.34;47.54
2675;BME280;1347;42.122;24.746;2023-04-19T12:09:25;98945.09;;;22.39;47.86
2675;BME280;1347;42.122;24.746;2023-04-19T12:11:52;98941.97;;;22.28;48.37
2675;BME280;1347;42.122;24.746;2023-04-19T12:14:21;98950.78;;;22.17;48.78
2675;BME280;1347;42.122;24.746;2023-04-19T12:17:10;98942.63;;;21.08;50.69
2675;BME280;1347;42.122;24.746;2023-04-19T12:19:42;98944.97;;;19.68;55.13
2675;BME280;1347;42.122;24.746;2023-04-19T12:22:13;98950.75;;;19.48;56.83
2675;BME280;1347;42.122;24.746;2023-04-19T12:24:40;98959.22;;;19.83;56.97
2675;BME280;1347;42.122;24.746;2023-04-19T12:27:08;98958.88;;;19.81;58.35
2675;BME280;1347;42.122;24.746;2023-04-19T12:29:36;98946.47;;;19.31;61.21
2675;BME280;1347;42.122;24.746;2023-04-19T12:32:04;98954.47;;;18.88;63.88
2675;BME280;1347;42.122;24.746;2023-04-19T12:34:31;98944.75;;;19.08;65.41
2675;BME280;1347;42.122;24.746;2023-04-19T12:36:58;98937.47;;;21.90;57.93
2675;BME280;1347;42.122;24.746;2023-04-19T12:39:26;98943.50;;;22.29;56.08
2675;BME280;1347;42.122;24.746;2023-04-19T12:41:53;98932.66;;;21.20;58.44
2675;BME280;1347;42.122;24.746;2023-04-19T12:44:21;98943.78;;;21.73;56.95
2675;BME280;1347;42.122;24.746;2023-04-19T12:46:48;98940.59;;;21.92;54.08
2675;BME280;1347;42.122;24.746;2023-04-19T12:49:16;98937.13;;;20.96;56.25
2675;BME280;1347;42.122;24.746;2023-04-19T12:51:44;98931.41;;;20.77;56.60
2675;BME280;1347;42.122;24.746;2023-04-19T12:54:12;98941.75;;;20.77;57.40
2675;BME280;1347;42.122;24.746;2023-04-19T12:56:40;98943.47;;;21.80;59.88
2675;BME280;1347;42.122;24.746;2023-04-19T12:59:07;98960.03;;;23.00;54.70
2675;BME280;1347;42.122;24.746;2023-04-19T13:01:34;98962.28;;;22.28;56.96
2675;BME280;1347;42.122;24.746;2023-04-19T13:04:01;98961.22;;;22.71;56.72
2675;BME280;1347;42.122;24.746;2023-04-19T13:06:28;98957.34;;;22.60;55.73
2675;BME280;1347;42.122;24.746;2023-04-19T13:08:55;98964.19;;;22.59;55.99
2675;BME280;1347;42.122;24.746;2023-04-19T13:11:22;98964.34;;;22.92;55.30